createdAt,value
2018-01-22T00:00:07.523Z,-3.06
2018-01-22T00:01:07.491Z,-3.06
2018-01-22T00:02:07.488Z,-3.12
2018-01-22T00:03:07.720Z,-3.15
2018-01-22T00:04:07.447Z,-3.18
2018-01-22T00:05:07.140Z,-3.12
2018-01-22T00:06:07.391Z,-3.07
2018-01-22T00:07:07.392Z,-3.06
2018-01-22T00:08:07.087Z,-3.04
2018-01-22T00:09:07.066Z,-3.11
2018-01-22T00:10:07.310Z,-3.04
2018-01-22T00:11:07.284Z,-3.06
2018-01-22T00:12:07.266Z,-3
2018-01-22T00:13:07.015Z,-3.11
2018-01-22T00:14:06.954Z,-3.06
2018-01-22T00:15:07.214Z,-3
2018-01-22T00:16:06.916Z,-3.04
2018-01-22T00:17:07.163Z,-3.03
2018-01-22T00:18:06.888Z,-3.03
2018-01-22T00:19:06.853Z,-3.09
2018-01-22T00:20:06.853Z,-3
2018-01-22T00:21:07.085Z,-3.03
2018-01-22T00:22:07.059Z,-3.11
2018-01-22T00:23:07.046Z,-3.11
2018-01-22T00:24:07.040Z,-3.11
2018-01-22T00:25:07.001Z,-3.07
2018-01-22T00:26:07.268Z,-3.21
2018-01-22T00:27:06.957Z,-3.15
2018-01-22T00:28:06.671Z,-3.12
2018-01-22T00:29:06.652Z,-3.11
2018-01-22T00:30:06.629Z,-3.07
2018-01-22T00:31:06.886Z,-3.11
2018-01-22T00:32:06.609Z,-3.11
2018-01-22T00:33:06.836Z,-3.11
2018-01-22T00:34:06.763Z,-3.18
2018-01-22T00:35:06.798Z,-3.11
2018-01-22T00:36:07.118Z,-3.11
2018-01-22T00:37:06.488Z,-3.06
2018-01-22T00:38:06.734Z,-3.01
2018-01-22T00:39:06.443Z,-3.11
2018-01-22T00:40:06.696Z,-3.04
2018-01-22T00:41:06.407Z,-3.04
2018-01-22T00:42:06.656Z,-3
2018-01-22T00:43:06.649Z,-2.94
2018-01-22T00:44:06.635Z,-2.99
2018-01-22T00:45:06.323Z,-2.85
2018-01-22T00:46:06.576Z,-2.9
2018-01-22T00:47:06.822Z,-2.86
2018-01-22T00:48:06.279Z,-2.86
2018-01-22T00:49:06.257Z,-2.88
2018-01-22T00:50:06.222Z,-2.85
2018-01-22T00:51:06.204Z,-2.83
2018-01-22T00:52:06.452Z,-2.82
2018-01-22T00:53:06.436Z,-2.82
2018-01-22T00:54:06.415Z,-2.61
2018-01-22T00:55:06.426Z,-2.68
2018-01-22T00:56:06.101Z,-2.65
2018-01-22T00:57:06.350Z,-2.6
2018-01-22T00:58:06.061Z,-2.54
2018-01-22T00:59:06.313Z,-2.58
2018-01-22T01:00:06.024Z,-2.61
2018-01-22T01:01:06.272Z,-2.54
2018-01-22T01:02:05.981Z,-2.44
2018-01-22T01:03:06.235Z,-2.49
2018-01-22T01:04:05.955Z,-2.44
2018-01-22T01:05:05.946Z,-2.44
2018-01-22T01:06:06.176Z,-2.34
2018-01-22T01:07:05.877Z,-2.42
2018-01-22T01:08:06.130Z,-2.4
2018-01-22T01:09:06.384Z,-2.3
2018-01-22T01:10:05.818Z,-2.43
2018-01-22T01:11:06.071Z,-2.44
2018-01-22T01:12:06.047Z,-2.32
2018-01-22T01:13:06.052Z,-2.42
2018-01-22T01:14:05.747Z,-2.24
2018-01-22T01:15:05.723Z,-2.32
2018-01-22T01:16:05.971Z,-2.23
2018-01-22T01:17:05.953Z,-2.27
2018-01-22T01:18:05.670Z,-2.27
2018-01-22T01:19:06.183Z,-2.25
2018-01-22T01:20:05.620Z,-2.24
2018-01-22T01:21:06.150Z,-2.27
2018-01-22T01:22:06.125Z,-2.28
2018-01-22T01:23:05.831Z,-2.24
2018-01-22T01:24:05.979Z,-2.24
2018-01-22T01:25:05.788Z,-2.21
2018-01-22T01:26:05.501Z,-2.21
2018-01-22T01:27:05.481Z,-2.17
2018-01-22T01:28:05.729Z,-2.17
2018-01-22T01:29:05.449Z,-2.23
2018-01-22T01:30:05.689Z,-2.21
2018-01-22T01:31:05.949Z,-2.18
2018-01-22T01:32:05.380Z,-2.2
2018-01-22T01:33:05.362Z,-2.17
2018-01-22T01:34:05.614Z,-2.14
2018-01-22T01:35:05.591Z,-2.17
2018-01-22T01:36:05.569Z,-2.07
2018-01-22T01:37:05.278Z,-2.24
2018-01-22T01:38:05.266Z,-2.17
2018-01-22T01:39:05.530Z,-2.23
2018-01-22T01:40:05.223Z,-2.12
2018-01-22T01:41:05.740Z,-2.2
2018-01-22T01:42:05.467Z,-2.2
2018-01-22T01:43:05.161Z,-2.07
2018-01-22T01:44:05.414Z,-2.05
2018-01-22T01:45:05.706Z,-2.17
2018-01-22T01:46:05.102Z,-2.17
2018-01-22T01:47:05.353Z,-2.06
2018-01-22T01:48:05.065Z,-2.09
2018-01-22T01:49:05.321Z,-2.09
2018-01-22T01:50:05.294Z,-2.07
2018-01-22T01:51:05.003Z,-2.02
2018-01-22T01:52:05.255Z,-2.09
2018-01-22T01:53:04.966Z,-2.1
2018-01-22T01:54:05.214Z,-2.14
2018-01-22T01:55:05.220Z,-2.12
2018-01-22T01:56:05.213Z,-2.15
2018-01-22T01:57:04.885Z,-2.05
2018-01-22T01:58:05.145Z,-2.12
2018-01-22T01:59:05.044Z,-2.05
2018-01-22T02:00:04.840Z,-2.03
2018-01-22T02:01:04.807Z,-2.07
2018-01-22T02:02:05.059Z,-2.12
2018-01-22T02:03:04.765Z,-2.07
2018-01-22T02:04:05.014Z,-1.96
2018-01-22T02:05:04.725Z,-2.03
2018-01-22T02:06:04.709Z,-1.94
2018-01-22T02:07:04.706Z,-2.02
2018-01-22T02:08:05.243Z,-2.03
2018-01-22T02:09:04.668Z,-1.96
2018-01-22T02:10:04.966Z,-1.97
2018-01-22T02:11:04.702Z,-2.02
2018-01-22T02:12:05.149Z,-1.97
2018-01-22T02:13:04.638Z,-1.85
2018-01-22T02:14:04.826Z,-1.92
2018-01-22T02:15:04.817Z,-1.86
2018-01-22T02:16:05.076Z,-1.88
2018-01-22T02:17:04.489Z,-1.84
2018-01-22T02:18:04.791Z,-1.81
2018-01-22T02:19:04.448Z,-1.84
2018-01-22T02:20:04.710Z,-1.82
2018-01-22T02:21:04.406Z,-1.81
2018-01-22T02:22:04.661Z,-1.84
2018-01-22T02:23:04.645Z,-1.82
2018-01-22T02:24:04.919Z,-1.79
2018-01-22T02:25:04.608Z,-1.82
2018-01-22T02:26:04.595Z,-1.81
2018-01-22T02:27:04.562Z,-1.82
2018-01-22T02:28:04.273Z,-1.82
2018-01-22T02:29:04.523Z,-1.81
2018-01-22T02:30:04.546Z,-1.81
2018-01-22T02:31:04.488Z,-1.85
2018-01-22T02:32:04.192Z,-1.79
2018-01-22T02:33:04.175Z,-1.86
2018-01-22T02:34:04.154Z,-1.82
2018-01-22T02:35:04.675Z,-1.74
2018-01-22T02:36:04.404Z,-1.78
2018-01-22T02:37:04.364Z,-1.85
2018-01-22T02:38:04.347Z,-1.88
2018-01-22T02:39:04.056Z,-1.84
2018-01-22T02:40:04.058Z,-1.85
2018-01-22T02:41:04.025Z,-1.84
2018-01-22T02:42:03.994Z,-1.84
2018-01-22T02:43:04.258Z,-1.78
2018-01-22T02:44:04.235Z,-1.81
2018-01-22T02:45:04.210Z,-1.81
2018-01-22T02:46:04.194Z,-1.84
2018-01-22T02:47:04.168Z,-1.81
2018-01-22T02:48:04.169Z,-1.85
2018-01-22T02:49:04.129Z,-1.85
2018-01-22T02:50:04.109Z,-1.81
2018-01-22T02:51:04.093Z,-1.86
2018-01-22T02:52:04.078Z,-1.91
2018-01-22T02:53:03.784Z,-1.99
2018-01-22T02:54:03.760Z,-1.92
2018-01-22T02:55:03.743Z,-1.99
2018-01-22T02:56:03.721Z,-2.03
2018-01-22T02:57:03.706Z,-2
2018-01-22T02:58:03.959Z,-2.07
2018-01-22T02:59:03.938Z,-2.17
2018-01-22T03:00:04.182Z,-2.17
2018-01-22T03:01:04.162Z,-2.28
2018-01-22T03:02:03.875Z,-2.23
2018-01-22T03:03:03.850Z,-2.23
2018-01-22T03:04:04.108Z,-2.24
2018-01-22T03:05:03.548Z,-2.21
2018-01-22T03:06:04.100Z,-2.23
2018-01-22T03:07:04.048Z,-2.2
2018-01-22T03:08:03.485Z,-2.24
2018-01-22T03:09:03.758Z,-2.18
2018-01-22T03:10:03.714Z,-2.2
2018-01-22T03:11:03.440Z,-2.2
2018-01-22T03:12:03.405Z,-2.21
2018-01-22T03:13:03.653Z,-2.3
2018-01-22T03:14:03.635Z,-2.24
2018-01-22T03:15:03.352Z,-2.21
2018-01-22T03:16:03.617Z,-2.21
2018-01-22T03:17:03.859Z,-2.23
2018-01-22T03:18:03.574Z,-2.14
2018-01-22T03:19:03.578Z,-2.21
2018-01-22T03:20:03.515Z,-2.14
2018-01-22T03:21:03.232Z,-2.21
2018-01-22T03:22:03.744Z,-2.2
2018-01-22T03:23:03.462Z,-2.12
2018-01-22T03:24:03.438Z,-2.09
2018-01-22T03:25:03.146Z,-2.07
2018-01-22T03:26:03.140Z,-2.07
2018-01-22T03:27:03.107Z,-2.02
2018-01-22T03:28:03.375Z,-2.02
2018-01-22T03:29:03.069Z,-2.05
2018-01-22T03:30:03.056Z,-2.07
2018-01-22T03:31:03.031Z,-2.06
2018-01-22T03:32:03.275Z,-2.03
2018-01-22T03:33:03.005Z,-2.02
2018-01-22T03:34:03.256Z,-2
2018-01-22T03:35:03.226Z,-2.02
2018-01-22T03:36:03.218Z,-1.99
2018-01-22T03:37:03.205Z,-2.05
2018-01-22T03:38:02.889Z,-2.03
2018-01-22T03:39:03.138Z,-2
2018-01-22T03:40:02.849Z,-2.03
2018-01-22T03:41:03.102Z,-2.02
2018-01-22T03:42:03.100Z,-2.05
2018-01-22T03:43:03.060Z,-1.97
2018-01-22T03:44:03.051Z,-1.96
2018-01-22T03:45:03.345Z,-1.99
2018-01-22T03:46:03.004Z,-1.97
2018-01-22T03:47:02.719Z,-2.02
2018-01-22T03:48:02.700Z,-2.06
2018-01-22T03:49:03.208Z,-2.03
2018-01-22T03:50:02.924Z,-1.99
2018-01-22T03:51:02.631Z,-1.94
2018-01-22T03:52:02.883Z,-1.97
2018-01-22T03:53:02.590Z,-1.97
2018-01-22T03:54:02.571Z,-1.99
2018-01-22T03:55:02.552Z,-2.03
2018-01-22T03:56:02.531Z,-2.02
2018-01-22T03:57:02.798Z,-1.97
2018-01-22T03:58:02.785Z,-2
2018-01-22T03:59:02.473Z,-1.92
2018-01-22T04:00:02.480Z,-2
2018-01-22T04:01:02.705Z,-1.94
2018-01-22T04:02:02.414Z,-1.86
2018-01-22T04:03:02.428Z,-1.96
2018-01-22T04:04:02.928Z,-1.82
2018-01-22T04:05:02.368Z,-1.86
2018-01-22T04:06:02.609Z,-1.86
2018-01-22T04:07:02.317Z,-1.88
2018-01-22T04:08:02.563Z,-1.81
2018-01-22T04:09:02.273Z,-1.86
2018-01-22T04:10:02.533Z,-1.89
2018-01-22T04:11:02.509Z,-1.88
2018-01-22T04:12:02.489Z,-1.88
2018-01-22T04:13:02.468Z,-1.92
2018-01-22T04:14:02.452Z,-2
2018-01-22T04:15:02.461Z,-1.99
2018-01-22T04:16:02.134Z,-1.88
2018-01-22T04:17:02.116Z,-1.97
2018-01-22T04:18:02.633Z,-2
2018-01-22T04:19:02.646Z,-1.91
2018-01-22T04:20:02.328Z,-1.94
2018-01-22T04:21:02.054Z,-1.99
2018-01-22T04:22:02.015Z,-1.99
2018-01-22T04:23:02.005Z,-2.03
2018-01-22T04:24:02.255Z,-1.92
2018-01-22T04:25:01.958Z,-2.07
2018-01-22T04:26:01.936Z,-1.99
2018-01-22T04:27:01.916Z,-2.12
2018-01-22T04:28:01.910Z,-2.09
2018-01-22T04:29:01.920Z,-2.05
2018-01-22T04:30:01.859Z,-2.06
2018-01-22T04:31:01.839Z,-2.07
2018-01-22T04:32:01.829Z,-2.09
2018-01-22T04:33:02.067Z,-2.15
2018-01-22T04:34:02.048Z,-2.17
2018-01-22T04:35:02.298Z,-2.15
2018-01-22T04:36:02.274Z,-2.18
2018-01-22T04:37:01.717Z,-2.18
2018-01-22T04:38:02.238Z,-2.17
2018-01-22T04:39:01.945Z,-2.12
2018-01-22T04:40:02.228Z,-2.17
2018-01-22T04:41:01.918Z,-2.21
2018-01-22T04:42:01.625Z,-2.21
2018-01-22T04:43:01.600Z,-2.15
2018-01-22T04:44:01.580Z,-2.17
2018-01-22T04:45:01.570Z,-2.15
2018-01-22T04:46:01.819Z,-2.23
2018-01-22T04:47:01.524Z,-2.2
2018-01-22T04:48:02.041Z,-2.18
2018-01-22T04:49:01.485Z,-2.12
2018-01-22T04:50:01.732Z,-2.2
2018-01-22T04:51:01.456Z,-2.18
2018-01-22T04:52:01.686Z,-2.21
2018-01-22T04:53:01.419Z,-2.21
2018-01-22T04:54:01.653Z,-2.15
2018-01-22T04:55:01.361Z,-2.06
2018-01-22T04:56:01.881Z,-2.12
2018-01-22T04:57:01.858Z,-2.1
2018-01-22T04:58:01.570Z,-2.15
2018-01-22T04:59:01.279Z,-2.06
2018-01-22T05:00:01.262Z,-2.03
2018-01-22T05:01:01.240Z,-2.03
2018-01-22T05:02:01.221Z,-1.97
2018-01-22T05:03:01.202Z,-2.03
2018-01-22T05:04:01.717Z,-1.96
2018-01-22T05:05:01.431Z,-1.99
2018-01-22T05:06:01.409Z,-1.96
2018-01-22T05:07:01.396Z,-1.97
2018-01-22T05:08:01.117Z,-1.92
2018-01-22T05:09:01.127Z,-1.94
2018-01-22T05:10:01.603Z,-2
2018-01-22T05:11:01.044Z,-1.92
2018-01-22T05:12:01.042Z,-1.96
2018-01-22T05:13:01.021Z,-2
2018-01-22T05:14:01.263Z,-1.92
2018-01-22T05:15:00.964Z,-1.96
2018-01-22T05:16:00.942Z,-1.84
2018-01-22T05:17:01.517Z,-2
2018-01-22T05:18:01.461Z,-1.99
2018-01-22T05:19:01.160Z,-1.92
2018-01-22T05:20:01.406Z,-1.92
2018-01-22T05:21:01.113Z,-1.91
2018-01-22T05:22:00.827Z,-1.94
2018-01-22T05:23:00.805Z,-1.94
2018-01-22T05:24:01.052Z,-1.92
2018-01-22T05:25:00.767Z,-1.92
2018-01-22T05:26:00.745Z,-1.91
2018-01-22T05:27:00.720Z,-1.96
2018-01-22T05:28:00.990Z,-1.99
2018-01-22T05:29:01.256Z,-1.85
2018-01-22T05:30:00.951Z,-1.88
2018-01-22T05:31:00.925Z,-1.99
2018-01-22T05:32:00.624Z,-1.91
2018-01-22T05:33:00.603Z,-1.97
2018-01-22T05:34:00.603Z,-1.96
2018-01-22T05:35:00.577Z,-1.92
2018-01-22T05:36:00.813Z,-1.99
2018-01-22T05:37:01.062Z,-2.02
2018-01-22T05:38:00.793Z,-1.97
2018-01-22T05:39:00.774Z,-1.99
2018-01-22T05:40:00.742Z,-1.99
2018-01-22T05:41:00.444Z,-1.91
2018-01-22T05:42:00.423Z,-2.02
2018-01-22T05:43:00.407Z,-2.03
2018-01-22T05:44:00.390Z,-2.02
2018-01-22T05:45:00.369Z,-1.99
2018-01-22T05:46:00.361Z,-2.02
2018-01-22T05:47:00.336Z,-1.94
2018-01-22T05:48:00.306Z,-1.96
2018-01-22T05:49:00.553Z,-1.97
2018-01-22T05:50:00.550Z,-1.96
2018-01-22T05:51:00.561Z,-2.07
2018-01-22T05:52:00.765Z,-1.99
2018-01-22T05:53:00.204Z,-2
2018-01-22T05:54:00.207Z,-2
2018-01-22T05:55:00.440Z,-1.91
2018-01-22T05:56:00.694Z,-2.03
2018-01-22T05:57:00.129Z,-1.96
2018-01-22T05:58:00.110Z,-2.03
2018-01-22T05:59:00.095Z,-2.05
2018-01-22T06:00:00.092Z,-2.02
2018-01-22T06:01:00.055Z,-2.06
2018-01-22T06:02:00.300Z,-1.94
2018-01-22T06:03:00.555Z,-1.99
2018-01-22T06:04:00.261Z,-2.06
2018-01-22T06:05:00.241Z,-1.96
2018-01-22T06:06:00.503Z,-1.94
2018-01-22T06:06:59.941Z,-2.02
2018-01-22T06:07:59.911Z,-1.99
2018-01-22T06:09:00.160Z,-1.96
2018-01-22T06:09:59.872Z,-2.05
2018-01-22T06:10:59.849Z,-1.99
2018-01-22T06:11:59.874Z,-2.02
2018-01-22T06:12:59.809Z,-1.97
2018-01-22T06:13:59.821Z,-1.96
2018-01-22T06:15:00.129Z,-1.85
2018-01-22T06:16:00.052Z,-2
2018-01-22T06:16:59.996Z,-1.88
2018-01-22T06:17:59.729Z,-1.92
2018-01-22T06:18:59.693Z,-1.91
2018-01-22T06:19:59.961Z,-1.86
2018-01-22T06:20:59.921Z,-1.97
2018-01-22T06:21:59.901Z,-1.99
2018-01-22T06:22:59.897Z,-1.92
2018-01-22T06:23:59.902Z,-1.88
2018-01-22T06:24:59.572Z,-1.91
2018-01-22T06:25:59.820Z,-2
2018-01-22T06:26:59.531Z,-1.89
2018-01-22T06:27:59.787Z,-1.91
2018-01-22T06:28:59.765Z,-1.96
2018-01-22T06:29:59.740Z,-1.94
2018-01-22T06:30:59.722Z,-1.89
2018-01-22T06:31:59.700Z,-1.92
2018-01-22T06:32:59.679Z,-1.91
2018-01-22T06:33:59.664Z,-1.88
2018-01-22T06:34:59.644Z,-1.89
2018-01-22T06:35:59.623Z,-1.85
2018-01-22T06:36:59.872Z,-1.85
2018-01-22T06:37:59.316Z,-2.02
2018-01-22T06:38:59.858Z,-1.94
2018-01-22T06:39:59.544Z,-1.97
2018-01-22T06:40:59.258Z,-1.99
2018-01-22T06:41:59.234Z,-1.86
2018-01-22T06:42:59.214Z,-1.94
2018-01-22T06:43:59.194Z,-1.92
2018-01-22T06:44:59.443Z,-1.94
2018-01-22T06:45:59.427Z,-1.85
2018-01-22T06:46:59.406Z,-1.92
2018-01-22T06:47:59.117Z,-1.89
2018-01-22T06:48:59.381Z,-1.92
2018-01-22T06:49:59.359Z,-2
2018-01-22T06:50:59.326Z,-1.92
2018-01-22T06:51:59.326Z,-2
2018-01-22T06:52:59.021Z,-1.96
2018-01-22T06:53:59.277Z,-1.88
2018-01-22T06:54:59.294Z,-1.86
2018-01-22T06:55:58.953Z,-1.89
2018-01-22T06:56:58.943Z,-1.85
2018-01-22T06:57:58.914Z,-1.86
2018-01-22T06:58:59.166Z,-1.81
2018-01-22T06:59:59.147Z,-1.91
2018-01-22T07:00:59.144Z,-1.89
2018-01-22T07:01:59.110Z,-1.91
2018-01-22T07:02:58.819Z,-1.86
2018-01-22T07:03:58.797Z,-1.84
2018-01-22T07:04:58.784Z,-1.86
2018-01-22T07:05:58.757Z,-1.82
2018-01-22T07:06:58.735Z,-1.81
2018-01-22T07:07:59.256Z,-1.85
2018-01-22T07:08:58.967Z,-1.85
2018-01-22T07:09:59.237Z,-1.86
2018-01-22T07:10:58.928Z,-1.79
2018-01-22T07:11:58.907Z,-1.81
2018-01-22T07:12:58.630Z,-1.82
2018-01-22T07:13:59.145Z,-1.88
2018-01-22T07:14:58.857Z,-1.82
2018-01-22T07:15:59.123Z,-1.82
2018-01-22T07:16:58.558Z,-1.73
2018-01-22T07:17:58.792Z,-1.82
2018-01-22T07:18:58.511Z,-1.82
2018-01-22T07:19:58.778Z,-1.68
2018-01-22T07:20:58.740Z,-1.7
2018-01-22T07:21:58.714Z,-1.85
2018-01-22T07:22:58.423Z,-1.7
2018-01-22T07:23:58.404Z,-1.79
2018-01-22T07:24:58.382Z,-1.7
2018-01-22T07:25:58.363Z,-1.74
2018-01-22T07:26:58.348Z,-1.64
2018-01-22T07:27:58.326Z,-1.68
2018-01-22T07:28:58.326Z,-1.68
2018-01-22T07:29:58.601Z,-1.7
2018-01-22T07:30:58.549Z,-1.67
2018-01-22T07:31:58.519Z,-1.63
2018-01-22T07:32:58.495Z,-1.7
2018-01-22T07:33:58.206Z,-1.64
2018-01-22T07:34:58.187Z,-1.58
2018-01-22T07:35:58.438Z,-1.61
2018-01-22T07:36:58.440Z,-1.55
2018-01-22T07:37:58.423Z,-1.61
2018-01-22T07:38:58.106Z,-1.64
2018-01-22T07:39:58.358Z,-1.58
2018-01-22T07:40:58.409Z,-1.6
2018-01-22T07:41:58.320Z,-1.6
2018-01-22T07:42:58.029Z,-1.55
2018-01-22T07:43:58.011Z,-1.55
2018-01-22T07:44:58.280Z,-1.53
2018-01-22T07:45:57.973Z,-1.5
2018-01-22T07:46:57.987Z,-1.48
2018-01-22T07:47:58.478Z,-1.63
2018-01-22T07:48:58.183Z,-1.46
2018-01-22T07:49:57.890Z,-1.5
2018-01-22T07:50:58.144Z,-1.49
2018-01-22T07:51:57.854Z,-1.46
2018-01-22T07:52:57.832Z,-1.52
2018-01-22T07:53:58.101Z,-1.55
2018-01-22T07:54:58.066Z,-1.53
2018-01-22T07:55:58.059Z,-1.52
2018-01-22T07:56:58.329Z,-1.45
2018-01-22T07:57:58.002Z,-1.48
2018-01-22T07:58:57.984Z,-1.48
2018-01-22T07:59:57.697Z,-1.53
2018-01-22T08:00:57.949Z,-1.45
2018-01-22T08:01:58.195Z,-1.49
2018-01-22T08:02:57.647Z,-1.35
2018-01-22T08:03:57.887Z,-1.38
2018-01-22T08:04:57.890Z,-1.32
2018-01-22T08:05:57.848Z,-1.32
2018-01-22T08:06:57.556Z,-1.35
2018-01-22T08:07:57.812Z,-1.37
2018-01-22T08:08:57.518Z,-1.37
2018-01-22T08:09:57.766Z,-1.38
2018-01-22T08:10:57.477Z,-1.4
2018-01-22T08:11:57.460Z,-1.28
2018-01-22T08:12:57.460Z,-1.3
2018-01-22T08:13:57.694Z,-1.25
2018-01-22T08:14:57.670Z,-1.34
2018-01-22T08:15:57.391Z,-1.24
2018-01-22T08:16:57.632Z,-1.24
2018-01-22T08:17:57.617Z,-1.17
2018-01-22T08:18:57.323Z,-1.1
2018-01-22T08:20:57.553Z,-1.11
2018-01-22T08:21:57.285Z,-1.1
2018-01-22T08:22:57.245Z,-1.06
2018-01-22T08:23:57.500Z,-1.1
2018-01-22T08:24:57.231Z,-1.03
2018-01-22T08:25:57.187Z,-0.95
2018-01-22T08:26:57.166Z,-0.96
2018-01-22T08:27:57.421Z,-0.99
2018-01-22T08:28:57.401Z,-0.96
2018-01-22T08:29:57.578Z,-0.95
2018-01-22T08:30:57.388Z,-0.92
2018-01-22T08:31:57.071Z,-0.96
2018-01-22T08:32:57.343Z,-1.06
2018-01-22T08:33:57.030Z,-0.95
2018-01-22T08:34:57.009Z,-0.95
2018-01-22T08:35:56.995Z,-0.96
2018-01-22T08:36:57.516Z,-0.95
2018-01-22T08:37:56.953Z,-0.87
2018-01-22T08:38:57.222Z,-0.87
2018-01-22T08:39:56.915Z,-0.77
2018-01-22T08:40:56.913Z,-0.67
2018-01-22T08:41:56.974Z,-0.64
2018-01-22T08:42:56.861Z,-0.73
2018-01-22T08:43:56.839Z,-0.67
2018-01-22T08:44:56.844Z,-0.66
2018-01-22T08:45:57.355Z,-0.73
2018-01-22T08:46:57.053Z,-0.82
2018-01-22T08:47:56.760Z,-0.79
2018-01-22T08:48:56.742Z,-0.82
2018-01-22T08:49:57.016Z,-0.85
2018-01-22T08:50:57.247Z,-0.85
2018-01-22T08:51:56.682Z,-0.84
2018-01-22T08:52:56.948Z,-0.89
2018-01-22T08:53:56.646Z,-0.79
2018-01-22T08:54:56.626Z,-0.82
2018-01-22T08:55:56.901Z,-0.87
2018-01-22T08:56:56.872Z,-0.87
2018-01-22T08:57:56.842Z,-0.91
2018-01-22T08:58:56.818Z,-0.84
2018-01-22T08:59:56.533Z,-0.76
2018-01-22T09:00:56.792Z,-0.64
2018-01-22T09:01:56.764Z,-0.69
2018-01-22T09:02:56.473Z,-0.59
2018-01-22T09:03:56.455Z,-0.59
2018-01-22T09:04:56.452Z,-0.55
2018-01-22T09:05:56.688Z,-0.49
2018-01-22T09:06:56.394Z,-0.48
2018-01-22T09:07:56.407Z,-0.43
2018-01-22T09:08:56.359Z,-0.45
2018-01-22T09:09:56.608Z,-0.34
2018-01-22T09:10:56.594Z,-0.38
2018-01-22T09:11:56.600Z,-0.38
2018-01-22T09:12:56.828Z,-0.3
2018-01-22T09:13:56.262Z,-0.3
2018-01-22T09:14:56.515Z,-0.33
2018-01-22T09:15:56.246Z,-0.36
2018-01-22T09:16:56.493Z,-0.4
2018-01-22T09:17:56.188Z,-0.34
2018-01-22T09:18:56.222Z,-0.33
2018-01-22T09:19:56.150Z,-0.31
2018-01-22T09:20:56.403Z,-0.22
2018-01-22T09:21:56.654Z,-0.22
2018-01-22T09:22:56.114Z,-0.15
2018-01-22T09:23:56.365Z,-0.07
2018-01-22T09:24:56.327Z,-0.05
2018-01-22T09:25:56.336Z,0.03
2018-01-22T09:26:56.652Z,0.05
2018-01-22T09:27:56.271Z,0.14
2018-01-22T09:28:55.982Z,0.06
2018-01-22T09:29:55.985Z,0.14
2018-01-22T09:30:56.215Z,0.06
2018-01-22T09:31:55.933Z,0.1
2018-01-22T09:32:55.942Z,0.02
2018-01-22T09:33:55.888Z,0.02
2018-01-22T09:34:55.875Z,-0.04
2018-01-22T09:35:56.128Z,-0.07
2018-01-22T09:36:56.200Z,-0.12
2018-01-22T09:37:55.823Z,-0.07
2018-01-22T09:38:55.797Z,-0.13
2018-01-22T09:39:56.326Z,-0.25
2018-01-22T09:40:56.027Z,-0.19
2018-01-22T09:41:56.011Z,-0.27
2018-01-22T09:42:56.266Z,-0.27
2018-01-22T09:43:55.971Z,-0.31
2018-01-22T09:44:56.237Z,-0.23
2018-01-22T09:45:55.677Z,-0.16
2018-01-22T09:46:55.918Z,-0.13
2018-01-22T09:47:55.903Z,-0.05
2018-01-22T09:48:55.881Z,-0.02
2018-01-22T09:49:55.862Z,0.08
2018-01-22T09:50:55.574Z,0.09
2018-01-22T09:51:55.551Z,0.13
2018-01-22T09:52:55.549Z,0.1
2018-01-22T09:53:55.517Z,0.05
2018-01-22T09:54:55.770Z,0.13
2018-01-22T09:55:55.490Z,0.14
2018-01-22T09:56:55.734Z,0.21
2018-01-22T09:57:55.984Z,0.32
2018-01-22T09:58:55.693Z,0.26
2018-01-22T09:59:55.678Z,0.34
2018-01-22T10:00:55.659Z,0.32
2018-01-22T10:01:55.642Z,0.39
2018-01-22T10:02:55.392Z,0.53
2018-01-22T10:03:55.602Z,0.63
2018-01-22T10:04:55.581Z,0.63
2018-01-22T10:05:55.585Z,0.63
2018-01-22T10:06:55.281Z,0.66
2018-01-22T10:07:55.256Z,0.67
2018-01-22T10:08:55.513Z,0.66
2018-01-22T10:09:55.515Z,0.67
2018-01-22T10:10:55.479Z,0.64
2018-01-22T10:11:55.184Z,0.63
2018-01-22T10:12:55.439Z,0.5
2018-01-22T10:13:55.164Z,0.56
2018-01-22T10:14:55.402Z,0.53
2018-01-22T10:15:55.407Z,0.48
2018-01-22T10:16:55.095Z,0.56
2018-01-22T10:17:55.394Z,0.5
2018-01-22T10:18:55.329Z,0.63
2018-01-22T10:19:55.065Z,0.72
2018-01-22T10:20:55.298Z,0.84
2018-01-22T10:21:55.275Z,0.75
2018-01-22T10:22:55.257Z,0.85
2018-01-22T10:23:55.516Z,0.89
2018-01-22T10:24:55.221Z,0.92
2018-01-22T10:25:55.203Z,0.94
2018-01-22T10:26:54.910Z,0.92
2018-01-22T10:27:55.166Z,0.92
2018-01-22T10:28:55.177Z,0.96
2018-01-22T10:29:55.134Z,0.81
2018-01-22T10:30:55.110Z,0.78
2018-01-22T10:31:55.369Z,0.71
2018-01-22T10:32:54.825Z,0.64
2018-01-22T10:33:54.786Z,0.48
2018-01-22T10:34:55.051Z,0.56
2018-01-22T10:35:55.048Z,0.44
2018-01-22T10:36:55.277Z,0.41
2018-01-22T10:37:54.996Z,0.48
2018-01-22T10:38:54.694Z,0.53
2018-01-22T10:39:54.956Z,0.57
2018-01-22T10:40:54.659Z,0.64
2018-01-22T10:41:54.639Z,0.64
2018-01-22T10:42:54.921Z,0.67
2018-01-22T10:43:54.925Z,0.64
2018-01-22T10:44:54.604Z,0.56
2018-01-22T10:45:54.841Z,0.53
2018-01-22T10:46:54.551Z,0.66
2018-01-22T10:47:54.814Z,0.64
2018-01-22T10:48:54.515Z,0.67
2018-01-22T10:49:54.771Z,0.64
2018-01-22T10:50:54.480Z,0.61
2018-01-22T10:51:54.732Z,0.71
2018-01-22T10:52:54.716Z,0.64
2018-01-22T10:53:54.445Z,0.69
2018-01-22T10:54:54.884Z,0.75
2018-01-22T10:55:54.394Z,0.67
2018-01-22T10:56:54.372Z,0.75
2018-01-22T10:57:54.362Z,0.82
2018-01-22T10:58:54.606Z,0.94
2018-01-22T10:59:54.891Z,0.94
2018-01-22T11:00:54.585Z,0.9
2018-01-22T11:01:54.829Z,0.93
2018-01-22T11:02:54.536Z,0.97
2018-01-22T11:03:54.245Z,1.04
2018-01-22T11:04:54.241Z,1.11
2018-01-22T11:05:54.481Z,1.1
2018-01-22T11:06:54.192Z,1.04
2018-01-22T11:07:54.191Z,1.14
2018-01-22T11:08:54.155Z,1.2
2018-01-22T11:09:54.678Z,1.21
2018-01-22T11:10:54.121Z,1.29
2018-01-22T11:11:54.376Z,1.3
2018-01-22T11:12:54.087Z,1.21
2018-01-22T11:13:54.068Z,1.39
2018-01-22T11:14:54.068Z,1.38
2018-01-22T11:15:54.031Z,1.39
2018-01-22T11:16:54.315Z,1.44
2018-01-22T11:17:54.536Z,1.44
2018-01-22T11:18:53.977Z,1.47
2018-01-22T11:19:54.230Z,1.5
2018-01-22T11:20:54.214Z,1.58
2018-01-22T11:21:54.198Z,1.6
2018-01-22T11:22:53.911Z,1.68
2018-01-22T11:23:53.914Z,1.69
2018-01-22T11:24:54.158Z,1.86
2018-01-22T11:25:53.856Z,1.93
2018-01-22T11:26:53.837Z,1.93
2018-01-22T11:27:53.823Z,2.08
2018-01-22T11:28:54.356Z,1.98
2018-01-22T11:29:53.785Z,1.9
2018-01-22T11:30:54.049Z,1.83
2018-01-22T11:31:54.026Z,1.87
2018-01-22T11:32:54.008Z,1.82
2018-01-22T11:33:53.735Z,1.75
2018-01-22T11:34:53.710Z,1.56
2018-01-22T11:35:53.952Z,1.53
2018-01-22T11:36:53.671Z,1.48
2018-01-22T11:37:53.917Z,1.48
2018-01-22T11:38:53.630Z,1.42
2018-01-22T11:39:54.157Z,1.4
2018-01-22T11:40:53.595Z,1.54
2018-01-22T11:41:54.119Z,1.44
2018-01-22T11:42:53.562Z,1.36
2018-01-22T11:43:53.836Z,1.29
2018-01-22T11:44:53.525Z,1.15
2018-01-22T11:45:53.779Z,1.3
2018-01-22T11:46:53.763Z,1.33
2018-01-22T11:47:53.479Z,1.32
2018-01-22T11:48:53.758Z,1.36
2018-01-22T11:49:53.721Z,1.4
2018-01-22T11:50:53.964Z,1.42
2018-01-22T11:51:53.691Z,1.5
2018-01-22T11:52:53.936Z,1.4
2018-01-22T11:53:53.641Z,1.36
2018-01-22T11:54:53.626Z,1.38
2018-01-22T11:55:53.614Z,1.42
2018-01-22T11:56:53.604Z,1.32
2018-01-22T11:57:53.300Z,1.32
2018-01-22T11:58:53.313Z,1.24
2018-01-22T11:59:53.268Z,1.29
2018-01-22T12:00:53.273Z,1.24
2018-01-22T12:01:53.229Z,1.18
2018-01-22T12:02:53.221Z,1.21
2018-01-22T12:03:53.480Z,1.12
2018-01-22T12:04:53.450Z,1.12
2018-01-22T12:05:53.179Z,1.15
2018-01-22T12:06:53.412Z,1.15
2018-01-22T12:07:53.401Z,1.2
2018-01-22T12:08:53.377Z,1.18
2018-01-22T12:09:53.359Z,1.28
2018-01-22T12:10:53.072Z,1.18
2018-01-22T12:11:53.054Z,1.21
2018-01-22T12:12:53.036Z,1.22
2018-01-22T12:13:53.018Z,1.35
2018-01-22T12:14:53.541Z,1.46
2018-01-22T12:15:53.257Z,1.46
2018-01-22T12:16:52.965Z,1.54
2018-01-22T12:17:52.966Z,1.66
2018-01-22T12:18:52.956Z,1.68
2018-01-22T12:19:53.184Z,1.76
2018-01-22T12:20:53.438Z,1.74
2018-01-22T12:21:53.152Z,1.72
2018-01-22T12:22:53.139Z,1.83
2018-01-22T12:23:52.845Z,1.71
2018-01-22T12:24:52.851Z,1.75
2018-01-22T12:25:53.359Z,1.72
2018-01-22T12:26:52.793Z,1.83
2018-01-22T12:27:52.775Z,1.92
2018-01-22T12:28:53.046Z,2.05
2018-01-22T12:29:52.740Z,2.05
2018-01-22T12:30:52.997Z,2.09
2018-01-22T12:31:52.985Z,2.06
2018-01-22T12:32:52.959Z,2.04
2018-01-22T12:33:52.945Z,2.02
2018-01-22T12:34:52.660Z,2.08
2018-01-22T12:35:52.922Z,2.2
2018-01-22T12:36:52.891Z,2.31
2018-01-22T12:37:52.885Z,2.27
2018-01-22T12:38:52.855Z,2.33
2018-01-22T12:39:52.844Z,2.31
2018-01-22T12:40:52.846Z,2.29
2018-01-22T12:41:52.535Z,2.29
2018-01-22T12:42:52.515Z,2.13
2018-01-22T12:43:52.502Z,2.26
2018-01-22T12:44:52.586Z,2.16
2018-01-22T12:45:53.226Z,2.27
2018-01-22T12:46:52.451Z,2.24
2018-01-22T12:47:52.434Z,2.29
2018-01-22T12:48:52.419Z,2.33
2018-01-22T12:49:52.399Z,2.29
2018-01-22T12:50:52.393Z,2.27
2018-01-22T12:51:52.635Z,2.23
2018-01-22T12:52:52.363Z,2.13
2018-01-22T12:53:52.332Z,2.09
2018-01-22T12:54:52.593Z,1.98
2018-01-22T12:55:52.320Z,1.75
2018-01-22T12:56:52.830Z,1.74
2018-01-22T12:57:52.537Z,1.58
2018-01-22T12:58:52.518Z,1.48
2018-01-22T12:59:52.514Z,1.48
2018-01-22T13:00:52.754Z,1.4
2018-01-22T13:01:52.198Z,1.28
2018-01-22T13:02:52.455Z,1.21